sensor_id;sensor_type;location;lat;lon;timestamp;temperature;humidity
2489;DHT22;1255;48.716;9.124;2023-06-24T00:00:08;15.20;99.90
2489;DHT22;1255;48.716;9.124;2023-06-24T00:02:37;15.20;99.90
2489;DHT22;1255;48.716;9.124;2023-06-24T00:05:06;15.20;99.90
2489;DHT22;1255;48.716;9.124;2023-06-24T00:07:35;15.10;99.90
2489;DHT22;1255;48.716;9.124;2023-06-24T00:10:09;15.10;99.90
2489;DHT22;1255;48.716;9.124;2023-06-24T00:12:37;15.00;99.90
2489;DHT22;1255;48.716;9.124;2023-06-24T00:15:06;15.00;99.90
2489;DHT22;1255;48.716;9.124;2023-06-24T00:17:33;14.90;99.90
2489;DHT22;1255;48.716;9.124;2023-06-24T00:20:00;14.90;99.90
2489;DHT22;1255;48.716;9.124;2023-06-24T00:22:26;14.90;99.90
2489;DHT22;1255;48.716;9.124;2023-06-24T00:24:55;14.90;99.90
2489;DHT22;1255;48.716;9.124;2023-06-24T00:27:22;14.90;99.90
2489;DHT22;1255;48.716;9.124;2023-06-24T00:29:48;14.80;99.90
2489;DHT22;1255;48.716;9.124;2023-06-24T00:32:15;14.80;99.90
2489;DHT22;1255;48.716;9.124;2023-06-24T00:34:42;14.80;99.90
2489;DHT22;1255;48.716;9.124;2023-06-24T00:37:09;14.80;99.90
2489;DHT22;1255;48.716;9.124;2023-06-24T00:39:36;14.70;99.90
2489;DHT22;1255;48.716;9.124;2023-06-24T00:42:05;14.70;99.90
2489;DHT22;1255;48.716;9.124;2023-06-24T00:44:32;14.70;99.90
2489;DHT22;1255;48.716;9.124;2023-06-24T00:46:58;14.70;99.90
2489;DHT22;1255;48.716;9.124;2023-06-24T00:49:25;14.60;99.90
2489;DHT22;1255;48.716;9.124;2023-06-24T00:51:52;14.60;99.90
2489;DHT22;1255;48.716;9.124;2023-06-24T00:54:21;14.60;99.90
2489;DHT22;1255;48.716;9.124;2023-06-24T00:56:56;14.60;99.90
2489;DHT22;1255;48.716;9.124;2023-06-24T00:59:27;14.60;99.90
2489;DHT22;1255;48.716;9.124;2023-06-24T01:01:57;14.50;99.90
2489;DHT22;1255;48.716;9.124;2023-06-24T01:04:27;14.50;99.90
2489;DHT22;1255;48.716;9.124;2023-06-24T01:06:55;14.50;99.90
2489;DHT22;1255;48.716;9.124;2023-06-24T01:09:23;14.40;99.90
2489;DHT22;1255;48.716;9.124;2023-06-24T01:11:50;14.40;99.90
2489;DHT22;1255;48.716;9.124;2023-06-24T01:14:17;14.40;99.90
2489;DHT22;1255;48.716;9.124;2023-06-24T01:16:53;14.40;99.90
2489;DHT22;1255;48.716;9.124;2023-06-24T01:19:47;14.30;99.90
2489;DHT22;1255;48.716;9.124;2023-06-24T01:22:30;14.30;99.90
2489;DHT22;1255;48.716;9.124;2023-06-24T01:25:08;14.30;99.90
2489;DHT22;1255;48.716;9.124;2023-06-24T01:30:41;14.20;99.90
2489;DHT22;1255;48.716;9.124;2023-06-24T01:33:21;14.20;99.90
2489;DHT22;1255;48.716;9.124;2023-06-24T01:35:51;14.20;99.90
2489;DHT22;1255;48.716;9.124;2023-06-24T01:38:22;14.10;99.90
2489;DHT22;1255;48.716;9.124;2023-06-24T01:40:50;14.20;99.90
2489;DHT22;1255;48.716;9.124;2023-06-24T01:43:19;14.10;99.90
2489;DHT22;1255;48.716;9.124;2023-06-24T01:45:50;14.10;99.90
2489;DHT22;1255;48.716;9.124;2023-06-24T01:48:24;14.00;99.90
2489;DHT22;1255;48.716;9.124;2023-06-24T01:50:57;14.00;99.90
2489;DHT22;1255;48.716;9.124;2023-06-24T01:53:24;14.00;99.90
2489;DHT22;1255;48.716;9.124;2023-06-24T01:55:54;14.00;99.90
2489;DHT22;1255;48.716;9.124;2023-06-24T01:58:22;13.90;99.90
2489;DHT22;1255;48.716;9.124;2023-06-24T02:00:50;13.90;99.90
2489;DHT22;1255;48.716;9.124;2023-06-24T02:03:21;13.90;99.90
2489;DHT22;1255;48.716;9.124;2023-06-24T02:05:48;13.90;99.90
2489;DHT22;1255;48.716;9.124;2023-06-24T02:08:17;13.90;99.90
2489;DHT22;1255;48.716;9.124;2023-06-24T02:10:45;13.90;99.90
2489;DHT22;1255;48.716;9.124;2023-06-24T02:13:13;13.90;99.90
2489;DHT22;1255;48.716;9.124;2023-06-24T02:15:41;13.80;99.90
2489;DHT22;1255;48.716;9.124;2023-06-24T02:18:09;13.80;99.90
2489;DHT22;1255;48.716;9.124;2023-06-24T02:20:40;13.80;99.90
2489;DHT22;1255;48.716;9.124;2023-06-24T02:23:08;13.80;99.90
2489;DHT22;1255;48.716;9.124;2023-06-24T02:25:36;13.80;99.90
2489;DHT22;1255;48.716;9.124;2023-06-24T02:28:05;13.80;99.90
2489;DHT22;1255;48.716;9.124;2023-06-24T02:30:32;13.80;99.90
2489;DHT22;1255;48.716;9.124;2023-06-24T02:33:01;13.70;99.90
2489;DHT22;1255;48.716;9.124;2023-06-24T02:35:27;13.70;99.90
2489;DHT22;1255;48.716;9.124;2023-06-24T02:37:56;13.70;99.90
2489;DHT22;1255;48.716;9.124;2023-06-24T02:40:22;13.70;99.90
2489;DHT22;1255;48.716;9.124;2023-06-24T02:42:49;13.70;99.90
2489;DHT22;1255;48.716;9.124;2023-06-24T02:45:16;13.60;99.90
2489;DHT22;1255;48.716;9.124;2023-06-24T02:47:45;13.60;99.90
2489;DHT22;1255;48.716;9.124;2023-06-24T02:50:12;13.60;99.90
2489;DHT22;1255;48.716;9.124;2023-06-24T02:52:40;13.60;99.90
2489;DHT22;1255;48.716;9.124;2023-06-24T02:55:09;13.60;99.90
2489;DHT22;1255;48.716;9.124;2023-06-24T02:57:37;13.60;99.90
2489;DHT22;1255;48.716;9.124;2023-06-24T03:00:05;13.50;99.90
2489;DHT22;1255;48.716;9.124;2023-06-24T03:02:34;13.50;99.90
2489;DHT22;1255;48.716;9.124;2023-06-24T03:05:01;13.50;99.90
2489;DHT22;1255;48.716;9.124;2023-06-24T03:07:30;13.50;99.90
2489;DHT22;1255;48.716;9.124;2023-06-24T03:10:00;13.50;99.90
2489;DHT22;1255;48.716;9.124;2023-06-24T03:12:29;13.40;99.90
2489;DHT22;1255;48.716;9.124;2023-06-24T03:14:56;13.50;99.90
2489;DHT22;1255;48.716;9.124;2023-06-24T03:17:23;13.50;99.90
2489;DHT22;1255;48.716;9.124;2023-06-24T03:19:50;13.50;99.90
2489;DHT22;1255;48.716;9.124;2023-06-24T03:22:17;13.60;99.90
2489;DHT22;1255;48.716;9.124;2023-06-24T03:24:44;13.60;99.90
2489;DHT22;1255;48.716;9.124;2023-06-24T03:27:11;13.70;99.90
2489;DHT22;1255;48.716;9.124;2023-06-24T03:29:39;13.70;99.90
2489;DHT22;1255;48.716;9.124;2023-06-24T03:32:07;13.70;99.90
2489;DHT22;1255;48.716;9.124;2023-06-24T03:34:34;13.80;99.90
2489;DHT22;1255;48.716;9.124;2023-06-24T03:37:00;13.80;99.90
2489;DHT22;1255;48.716;9.124;2023-06-24T03:39:29;13.80;99.90
2489;DHT22;1255;48.716;9.124;2023-06-24T03:41:56;13.90;99.90
2489;DHT22;1255;48.716;9.124;2023-06-24T03:44:23;13.90;99.90
2489;DHT22;1255;48.716;9.124;2023-06-24T03:46:51;14.00;99.90
2489;DHT22;1255;48.716;9.124;2023-06-24T03:49:18;14.10;99.90
2489;DHT22;1255;48.716;9.124;2023-06-24T03:51:45;14.10;99.90
2489;DHT22;1255;48.716;9.124;2023-06-24T03:54:12;14.10;99.90
2489;DHT22;1255;48.716;9.124;2023-06-24T03:56:39;14.10;99.90
2489;DHT22;1255;48.716;9.124;2023-06-24T03:59:06;14.20;99.90
2489;DHT22;1255;48.716;9.124;2023-06-24T04:01:33;14.20;99.90
2489;DHT22;1255;48.716;9.124;2023-06-24T04:04:03;14.20;99.90
2489;DHT22;1255;48.716;9.124;2023-06-24T04:06:30;14.20;99.90
2489;DHT22;1255;48.716;9.124;2023-06-24T04:08:57;14.30;99.90
2489;DHT22;1255;48.716;9.124;2023-06-24T04:11:24;14.30;99.90
2489;DHT22;1255;48.716;9.124;2023-06-24T04:13:51;14.40;99.90
2489;DHT22;1255;48.716;9.124;2023-06-24T04:16:18;14.40;99.90
2489;DHT22;1255;48.716;9.124;2023-06-24T04:18:45;14.40;99.90
2489;DHT22;1255;48.716;9.124;2023-06-24T04:21:13;14.50;99.90
2489;DHT22;1255;48.716;9.124;2023-06-24T04:23:41;14.50;99.90
2489;DHT22;1255;48.716;9.124;2023-06-24T04:26:08;14.50;99.90
2489;DHT22;1255;48.716;9.124;2023-06-24T04:28:35;14.50;99.90
2489;DHT22;1255;48.716;9.124;2023-06-24T04:31:03;14.60;99.90
2489;DHT22;1255;48.716;9.124;2023-06-24T04:33:34;14.60;99.90
2489;DHT22;1255;48.716;9.124;2023-06-24T04:36:16;14.70;99.90
2489;DHT22;1255;48.716;9.124;2023-06-24T04:38:43;14.80;99.90
2489;DHT22;1255;48.716;9.124;2023-06-24T04:41:10;14.90;99.90
2489;DHT22;1255;48.716;9.124;2023-06-24T04:43:37;15.00;99.90
2489;DHT22;1255;48.716;9.124;2023-06-24T04:46:04;15.00;99.90
2489;DHT22;1255;48.716;9.124;2023-06-24T04:48:31;15.10;99.90
2489;DHT22;1255;48.716;9.124;2023-06-24T04:50:58;15.10;99.90
2489;DHT22;1255;48.716;9.124;2023-06-24T04:53:26;15.20;99.90
2489;DHT22;1255;48.716;9.124;2023-06-24T04:55:53;15.20;99.90
2489;DHT22;1255;48.716;9.124;2023-06-24T04:58:22;15.30;99.90
2489;DHT22;1255;48.716;9.124;2023-06-24T05:00:49;15.30;99.90
2489;DHT22;1255;48.716;9.124;2023-06-24T05:03:19;15.30;99.90
2489;DHT22;1255;48.716;9.124;2023-06-24T05:05:46;15.40;99.90
2489;DHT22;1255;48.716;9.124;2023-06-24T05:08:16;15.40;99.90
2489;DHT22;1255;48.716;9.124;2023-06-24T05:10:44;15.40;99.90
2489;DHT22;1255;48.716;9.124;2023-06-24T05:13:11;15.50;99.90
2489;DHT22;1255;48.716;9.124;2023-06-24T05:15:38;15.50;99.90
2489;DHT22;1255;48.716;9.124;2023-06-24T05:18:05;15.60;99.90
2489;DHT22;1255;48.716;9.124;2023-06-24T05:20:32;15.70;99.90
2489;DHT22;1255;48.716;9.124;2023-06-24T05:22:59;15.70;99.90
2489;DHT22;1255;48.716;9.124;2023-06-24T05:25:26;15.80;99.90
2489;DHT22;1255;48.716;9.124;2023-06-24T05:27:54;15.80;99.90
2489;DHT22;1255;48.716;9.124;2023-06-24T05:30:21;15.90;99.90
2489;DHT22;1255;48.716;9.124;2023-06-24T05:32:49;15.90;99.90
2489;DHT22;1255;48.716;9.124;2023-06-24T05:35:39;16.00;99.90
2489;DHT22;1255;48.716;9.124;2023-06-24T05:38:07;16.10;99.90
2489;DHT22;1255;48.716;9.124;2023-06-24T05:40:34;16.20;99.90
2489;DHT22;1255;48.716;9.124;2023-06-24T05:43:02;16.30;99.90
2489;DHT22;1255;48.716;9.124;2023-06-24T05:45:29;16.30;99.90
2489;DHT22;1255;48.716;9.124;2023-06-24T05:47:57;16.40;99.90
2489;DHT22;1255;48.716;9.124;2023-06-24T05:50:23;16.50;99.90
2489;DHT22;1255;48.716;9.124;2023-06-24T05:52:50;16.50;99.90
2489;DHT22;1255;48.716;9.124;2023-06-24T05:55:17;16.60;99.90
2489;DHT22;1255;48.716;9.124;2023-06-24T05:57:50;16.70;99.90
2489;DHT22;1255;48.716;9.124;2023-06-24T06:00:19;16.80;99.90
2489;DHT22;1255;48.716;9.124;2023-06-24T06:02:46;16.90;99.90
2489;DHT22;1255;48.716;9.124;2023-06-24T06:05:13;16.90;99.90
2489;DHT22;1255;48.716;9.124;2023-06-24T06:10:21;17.20;99.90
2489;DHT22;1255;48.716;9.124;2023-06-24T06:12:47;17.30;99.90
2489;DHT22;1255;48.716;9.124;2023-06-24T06:15:14;17.40;99.90
2489;DHT22;1255;48.716;9.124;2023-06-24T06:17:42;17.50;99.90
2489;DHT22;1255;48.716;9.124;2023-06-24T06:20:10;17.50;99.90
2489;DHT22;1255;48.716;9.124;2023-06-24T06:22:37;17.60;99.90
2489;DHT22;1255;48.716;9.124;2023-06-24T06:25:05;17.70;99.90
2489;DHT22;1255;48.716;9.124;2023-06-24T06:27:32;17.70;99.90
2489;DHT22;1255;48.716;9.124;2023-06-24T06:29:58;17.80;99.90
2489;DHT22;1255;48.716;9.124;2023-06-24T06:32:25;17.90;99.90
2489;DHT22;1255;48.716;9.124;2023-06-24T06:34:53;18.00;99.90
2489;DHT22;1255;48.716;9.124;2023-06-24T06:37:20;18.10;99.90
2489;DHT22;1255;48.716;9.124;2023-06-24T06:39:46;18.20;99.90
2489;DHT22;1255;48.716;9.124;2023-06-24T06:42:13;18.20;99.90
2489;DHT22;1255;48.716;9.124;2023-06-24T06:44:40;18.30;99.90
2489;DHT22;1255;48.716;9.124;2023-06-24T06:47:07;18.30;99.90
2489;DHT22;1255;48.716;9.124;2023-06-24T06:49:34;18.30;99.90
2489;DHT22;1255;48.716;9.124;2023-06-24T06:52:02;18.40;99.90
2489;DHT22;1255;48.716;9.124;2023-06-24T06:54:29;18.40;99.90
2489;DHT22;1255;48.716;9.124;2023-06-24T06:57:00;18.50;99.90
2489;DHT22;1255;48.716;9.124;2023-06-24T06:59:27;18.70;99.90
2489;DHT22;1255;48.716;9.124;2023-06-24T07:01:54;18.70;99.90
2489;DHT22;1255;48.716;9.124;2023-06-24T07:04:20;18.80;99.90
2489;DHT22;1255;48.716;9.124;2023-06-24T07:06:47;19.00;99.90
2489;DHT22;1255;48.716;9.124;2023-06-24T07:09:15;19.10;99.90
2489;DHT22;1255;48.716;9.124;2023-06-24T07:11:42;19.20;99.90
2489;DHT22;1255;48.716;9.124;2023-06-24T07:14:08;19.30;99.90
2489;DHT22;1255;48.716;9.124;2023-06-24T07:16:36;19.40;99.90
2489;DHT22;1255;48.716;9.124;2023-06-24T07:19:02;19.50;99.90
2489;DHT22;1255;48.716;9.124;2023-06-24T07:21:29;19.60;99.90
2489;DHT22;1255;48.716;9.124;2023-06-24T07:23:56;19.70;99.90
2489;DHT22;1255;48.716;9.124;2023-06-24T07:26:24;19.90;99.90
2489;DHT22;1255;48.716;9.124;2023-06-24T07:28:55;19.90;99.90
2489;DHT22;1255;48.716;9.124;2023-06-24T07:31:22;20.00;99.90
2489;DHT22;1255;48.716;9.124;2023-06-24T07:33:49;20.00;99.90
2489;DHT22;1255;48.716;9.124;2023-06-24T07:36:16;20.00;99.90
2489;DHT22;1255;48.716;9.124;2023-06-24T07:38:42;20.10;99.90
2489;DHT22;1255;48.716;9.124;2023-06-24T07:41:09;20.20;99.90
2489;DHT22;1255;48.716;9.124;2023-06-24T07:43:37;20.20;99.90
2489;DHT22;1255;48.716;9.124;2023-06-24T07:46:04;20.30;99.90
2489;DHT22;1255;48.716;9.124;2023-06-24T07:48:31;20.40;99.90
2489;DHT22;1255;48.716;9.124;2023-06-24T07:50:58;20.40;99.90
2489;DHT22;1255;48.716;9.124;2023-06-24T07:53:25;20.50;99.90
2489;DHT22;1255;48.716;9.124;2023-06-24T07:55:51;20.60;99.90
2489;DHT22;1255;48.716;9.124;2023-06-24T07:58:18;20.70;99.90
2489;DHT22;1255;48.716;9.124;2023-06-24T08:00:47;20.70;99.90
2489;DHT22;1255;48.716;9.124;2023-06-24T08:03:13;20.80;99.90
2489;DHT22;1255;48.716;9.124;2023-06-24T08:05:40;20.80;99.90
2489;DHT22;1255;48.716;9.124;2023-06-24T08:08:08;20.80;99.90
2489;DHT22;1255;48.716;9.124;2023-06-24T08:10:34;20.90;99.90
2489;DHT22;1255;48.716;9.124;2023-06-24T08:13:01;20.90;99.90
2489;DHT22;1255;48.716;9.124;2023-06-24T08:15:28;21.00;99.90
2489;DHT22;1255;48.716;9.124;2023-06-24T08:17:56;21.10;99.90
2489;DHT22;1255;48.716;9.124;2023-06-24T08:20:23;21.30;99.90
2489;DHT22;1255;48.716;9.124;2023-06-24T08:22:50;21.40;99.90
2489;DHT22;1255;48.716;9.124;2023-06-24T08:25:17;21.50;99.90
2489;DHT22;1255;48.716;9.124;2023-06-24T08:27:43;21.70;99.90
2489;DHT22;1255;48.716;9.124;2023-06-24T08:30:13;21.80;99.90
2489;DHT22;1255;48.716;9.124;2023-06-24T08:32:40;21.80;99.90
2489;DHT22;1255;48.716;9.124;2023-06-24T08:35:08;21.90;99.90
2489;DHT22;1255;48.716;9.124;2023-06-24T08:37:36;22.00;99.90
2489;DHT22;1255;48.716;9.124;2023-06-24T08:40:03;22.10;99.90
2489;DHT22;1255;48.716;9.124;2023-06-24T08:42:31;22.20;99.90
2489;DHT22;1255;48.716;9.124;2023-06-24T08:44:57;22.30;99.90
2489;DHT22;1255;48.716;9.124;2023-06-24T08:47:25;22.40;99.90
2489;DHT22;1255;48.716;9.124;2023-06-24T08:50:01;22.50;99.90
2489;DHT22;1255;48.716;9.124;2023-06-24T08:52:32;22.50;99.90
2489;DHT22;1255;48.716;9.124;2023-06-24T08:55:01;22.60;99.90
2489;DHT22;1255;48.716;9.124;2023-06-24T08:57:28;22.70;99.90
2489;DHT22;1255;48.716;9.124;2023-06-24T08:59:55;22.80;99.90
2489;DHT22;1255;48.716;9.124;2023-06-24T09:02:22;23.00;99.90
2489;DHT22;1255;48.716;9.124;2023-06-24T09:04:50;23.00;99.90
2489;DHT22;1255;48.716;9.124;2023-06-24T09:07:25;23.10;99.90
2489;DHT22;1255;48.716;9.124;2023-06-24T09:09:53;23.10;99.90
2489;DHT22;1255;48.716;9.124;2023-06-24T09:12:20;23.20;99.90
2489;DHT22;1255;48.716;9.124;2023-06-24T09:14:48;23.30;99.90
2489;DHT22;1255;48.716;9.124;2023-06-24T09:17:16;23.40;99.90
2489;DHT22;1255;48.716;9.124;2023-06-24T09:19:43;23.50;99.90
2489;DHT22;1255;48.716;9.124;2023-06-24T09:22:10;23.50;99.90
2489;DHT22;1255;48.716;9.124;2023-06-24T09:24:42;23.60;99.90
2489;DHT22;1255;48.716;9.124;2023-06-24T09:27:12;23.70;99.90
2489;DHT22;1255;48.716;9.124;2023-06-24T09:29:39;23.80;99.90
2489;DHT22;1255;48.716;9.124;2023-06-24T09:32:07;23.70;99.90
2489;DHT22;1255;48.716;9.124;2023-06-24T09:34:34;23.70;99.90
2489;DHT22;1255;48.716;9.124;2023-06-24T09:37:01;23.70;99.90
2489;DHT22;1255;48.716;9.124;2023-06-24T09:39:28;23.80;99.90
2489;DHT22;1255;48.716;9.124;2023-06-24T09:42:01;23.90;99.90
2489;DHT22;1255;48.716;9.124;2023-06-24T09:44:30;23.90;99.90
2489;DHT22;1255;48.716;9.124;2023-06-24T09:46:57;24.00;99.90
2489;DHT22;1255;48.716;9.124;2023-06-24T09:49:23;24.10;99.90
2489;DHT22;1255;48.716;9.124;2023-06-24T09:51:54;24.10;99.90
2489;DHT22;1255;48.716;9.124;2023-06-24T09:54:21;24.10;99.90
2489;DHT22;1255;48.716;9.124;2023-06-24T09:56:50;24.20;99.80
2489;DHT22;1255;48.716;9.124;2023-06-24T09:59:19;24.30;99.00
2489;DHT22;1255;48.716;9.124;2023-06-24T10:01:49;24.30;99.90
2489;DHT22;1255;48.716;9.124;2023-06-24T10:04:19;24.20;99.70
2489;DHT22;1255;48.716;9.124;2023-06-24T10:06:47;24.10;99.90
2489;DHT22;1255;48.716;9.124;2023-06-24T10:09:14;24.00;98.50
2489;DHT22;1255;48.716;9.124;2023-06-24T10:11:43;24.00;99.90
2489;DHT22;1255;48.716;9.124;2023-06-24T10:14:10;24.10;99.90
2489;DHT22;1255;48.716;9.124;2023-06-24T10:16:37;24.20;99.90
2489;DHT22;1255;48.716;9.124;2023-06-24T10:19:06;24.30;99.90
2489;DHT22;1255;48.716;9.124;2023-06-24T10:21:45;24.40;99.90
2489;DHT22;1255;48.716;9.124;2023-06-24T10:24:16;24.50;99.90
2489;DHT22;1255;48.716;9.124;2023-06-24T10:26:53;24.70;97.70
2489;DHT22;1255;48.716;9.124;2023-06-24T10:29:30;24.70;99.90
2489;DHT22;1255;48.716;9.124;2023-06-24T10:32:01;24.60;99.60
2489;DHT22;1255;48.716;9.124;2023-06-24T10:34:43;24.50;99.90
2489;DHT22;1255;48.716;9.124;2023-06-24T10:37:18;24.50;99.30
2489;DHT22;1255;48.716;9.124;2023-06-24T10:39:50;24.70;99.90
2489;DHT22;1255;48.716;9.124;2023-06-24T10:42:37;24.90;99.90
2489;DHT22;1255;48.716;9.124;2023-06-24T10:45:15;25.20;99.80
2489;DHT22;1255;48.716;9.124;2023-06-24T10:47:43;25.40;99.50
2489;DHT22;1255;48.716;9.124;2023-06-24T10:50:13;25.60;99.90
2489;DHT22;1255;48.716;9.124;2023-06-24T10:52:41;25.60;97.00
2489;DHT22;1255;48.716;9.124;2023-06-24T10:55:08;25.70;97.30
2489;DHT22;1255;48.716;9.124;2023-06-24T10:57:35;25.70;98.00
2489;DHT22;1255;48.716;9.124;2023-06-24T11:00:04;25.90;97.70
2489;DHT22;1255;48.716;9.124;2023-06-24T11:02:31;26.00;95.90
2489;DHT22;1255;48.716;9.124;2023-06-24T11:04:58;26.00;95.30
2489;DHT22;1255;48.716;9.124;2023-06-24T11:07:28;26.10;95.90
2489;DHT22;1255;48.716;9.124;2023-06-24T11:09:58;26.10;96.10
2489;DHT22;1255;48.716;9.124;2023-06-24T11:12:26;26.20;96.80
2489;DHT22;1255;48.716;9.124;2023-06-24T11:14:56;26.30;95.40
2489;DHT22;1255;48.716;9.124;2023-06-24T11:17:23;26.30;96.00
2489;DHT22;1255;48.716;9.124;2023-06-24T11:19:51;26.30;96.60
2489;DHT22;1255;48.716;9.124;2023-06-24T11:22:18;26.40;96.70
2489;DHT22;1255;48.716;9.124;2023-06-24T11:24:46;26.50;95.90
2489;DHT22;1255;48.716;9.124;2023-06-24T11:27:13;26.50;96.10
2489;DHT22;1255;48.716;9.124;2023-06-24T11:29:40;26.50;97.90
2489;DHT22;1255;48.716;9.124;2023-06-24T11:32:07;26.60;95.70
2489;DHT22;1255;48.716;9.124;2023-06-24T11:34:35;26.40;96.90
2489;DHT22;1255;48.716;9.124;2023-06-24T11:37:10;26.20;96.80
2489;DHT22;1255;48.716;9.124;2023-06-24T11:39:36;26.20;96.00
2489;DHT22;1255;48.716;9.124;2023-06-24T11:42:06;26.30;97.00
2489;DHT22;1255;48.716;9.124;2023-06-24T11:44:33;26.40;97.80
2489;DHT22;1255;48.716;9.124;2023-06-24T11:47:04;26.60;97.70
2489;DHT22;1255;48.716;9.124;2023-06-24T11:49:31;26.70;95.50
2489;DHT22;1255;48.716;9.124;2023-06-24T11:51:57;26.80;93.90
2489;DHT22;1255;48.716;9.124;2023-06-24T11:54:24;26.90;93.20
2489;DHT22;1255;48.716;9.124;2023-06-24T11:56:51;26.80;91.20
2489;DHT22;1255;48.716;9.124;2023-06-24T11:59:21;26.60;92.00
2489;DHT22;1255;48.716;9.124;2023-06-24T12:01:55;26.60;93.10
2489;DHT22;1255;48.716;9.124;2023-06-24T12:04:27;26.50;92.40
2489;DHT22;1255;48.716;9.124;2023-06-24T12:06:54;26.50;94.40
2489;DHT22;1255;48.716;9.124;2023-06-24T12:09:21;26.60;95.30
2489;DHT22;1255;48.716;9.124;2023-06-24T12:11:48;26.80;94.50
2489;DHT22;1255;48.716;9.124;2023-06-24T12:14:15;27.00;92.40
2489;DHT22;1255;48.716;9.124;2023-06-24T12:16:43;27.00;93.80
2489;DHT22;1255;48.716;9.124;2023-06-24T12:19:10;26.90;91.80
2489;DHT22;1255;48.716;9.124;2023-06-24T12:21:37;26.90;93.60
2489;DHT22;1255;48.716;9.124;2023-06-24T12:24:04;27.10;93.40
2489;DHT22;1255;48.716;9.124;2023-06-24T12:26:31;27.20;94.60
2489;DHT22;1255;48.716;9.124;2023-06-24T12:28:58;27.40;94.50
2489;DHT22;1255;48.716;9.124;2023-06-24T12:31:25;27.50;94.00
2489;DHT22;1255;48.716;9.124;2023-06-24T12:33:53;27.50;91.20
2489;DHT22;1255;48.716;9.124;2023-06-24T12:36:21;27.50;92.80
2489;DHT22;1255;48.716;9.124;2023-06-24T12:38:48;27.50;90.20
2489;DHT22;1255;48.716;9.124;2023-06-24T12:41:14;27.30;91.80
2489;DHT22;1255;48.716;9.124;2023-06-24T12:43:41;27.30;93.80
2489;DHT22;1255;48.716;9.124;2023-06-24T12:46:08;27.30;91.00
2489;DHT22;1255;48.716;9.124;2023-06-24T12:48:34;27.40;91.10
2489;DHT22;1255;48.716;9.124;2023-06-24T12:51:03;27.50;90.20
2489;DHT22;1255;48.716;9.124;2023-06-24T12:53:29;27.40;92.90
2489;DHT22;1255;48.716;9.124;2023-06-24T12:55:56;27.40;91.90
2489;DHT22;1255;48.716;9.124;2023-06-24T12:58:23;27.30;93.40
2489;DHT22;1255;48.716;9.124;2023-06-24T13:00:51;27.40;93.10
2489;DHT22;1255;48.716;9.124;2023-06-24T13:03:18;27.50;93.10
2489;DHT22;1255;48.716;9.124;2023-06-24T13:05:44;27.60;93.10
2489;DHT22;1255;48.716;9.124;2023-06-24T13:08:12;27.70;93.10
2489;DHT22;1255;48.716;9.124;2023-06-24T13:10:40;27.60;91.30
2489;DHT22;1255;48.716;9.124;2023-06-24T13:13:06;27.70;92.00
2489;DHT22;1255;48.716;9.124;2023-06-24T13:15:33;27.70;91.30
2489;DHT22;1255;48.716;9.124;2023-06-24T13:18:00;27.80;92.80
2489;DHT22;1255;48.716;9.124;2023-06-24T13:20:27;27.90;89.10
2489;DHT22;1255;48.716;9.124;2023-06-24T13:22:54;27.90;91.40
2489;DHT22;1255;48.716;9.124;2023-06-24T13:25:22;27.90;90.70
2489;DHT22;1255;48.716;9.124;2023-06-24T13:27:49;27.90;90.30
2489;DHT22;1255;48.716;9.124;2023-06-24T13:30:16;28.00;91.10
2489;DHT22;1255;48.716;9.124;2023-06-24T13:32:44;28.10;92.50
2489;DHT22;1255;48.716;9.124;2023-06-24T13:35:11;28.10;88.90
2489;DHT22;1255;48.716;9.124;2023-06-24T13:37:38;28.10;91.40
2489;DHT22;1255;48.716;9.124;2023-06-24T13:40:06;28.20;92.00
2489;DHT22;1255;48.716;9.124;2023-06-24T13:42:34;28.10;90.40
2489;DHT22;1255;48.716;9.124;2023-06-24T13:45:01;28.20;91.40
2489;DHT22;1255;48.716;9.124;2023-06-24T13:47:28;28.30;91.10
2489;DHT22;1255;48.716;9.124;2023-06-24T13:49:55;28.30;91.00
2489;DHT22;1255;48.716;9.124;2023-06-24T13:52:22;28.40;91.70
2489;DHT22;1255;48.716;9.124;2023-06-24T13:54:49;28.40;91.70
2489;DHT22;1255;48.716;9.124;2023-06-24T13:57:16;28.40;91.20
2489;DHT22;1255;48.716;9.124;2023-06-24T13:59:44;28.50;90.90
2489;DHT22;1255;48.716;9.124;2023-06-24T14:02:11;28.60;92.60
2489;DHT22;1255;48.716;9.124;2023-06-24T14:04:38;28.60;90.40
2489;DHT22;1255;48.716;9.124;2023-06-24T14:07:05;28.70;90.90
2489;DHT22;1255;48.716;9.124;2023-06-24T14:09:33;28.70;90.70
2489;DHT22;1255;48.716;9.124;2023-06-24T14:12:00;28.70;91.50
2489;DHT22;1255;48.716;9.124;2023-06-24T14:14:26;28.70;92.20
2489;DHT22;1255;48.716;9.124;2023-06-24T14:16:55;28.70;90.10
2489;DHT22;1255;48.716;9.124;2023-06-24T14:19:21;28.70;88.90
2489;DHT22;1255;48.716;9.124;2023-06-24T14:21:48;28.70;90.10
2489;DHT22;1255;48.716;9.124;2023-06-24T14:24:15;28.70;91.10
2489;DHT22;1255;48.716;9.124;2023-06-24T14:26:41;28.70;90.30
2489;DHT22;1255;48.716;9.124;2023-06-24T14:29:08;28.50;87.30
2489;DHT22;1255;48.716;9.124;2023-06-24T14:31:35;28.40;89.60
2489;DHT22;1255;48.716;9.124;2023-06-24T14:34:03;28.20;89.80
2489;DHT22;1255;48.716;9.124;2023-06-24T14:36:29;28.20;87.10
2489;DHT22;1255;48.716;9.124;2023-06-24T14:38:56;28.00;90.20
2489;DHT22;1255;48.716;9.124;2023-06-24T14:41:24;28.00;91.50
2489;DHT22;1255;48.716;9.124;2023-06-24T14:43:51;28.00;89.70
2489;DHT22;1255;48.716;9.124;2023-06-24T14:46:17;28.10;90.80
2489;DHT22;1255;48.716;9.124;2023-06-24T14:48:44;28.30;89.40
2489;DHT22;1255;48.716;9.124;2023-06-24T14:51:12;28.30;90.80
2489;DHT22;1255;48.716;9.124;2023-06-24T14:53:39;28.30;90.20
2489;DHT22;1255;48.716;9.124;2023-06-24T14:56:06;28.20;91.90
2489;DHT22;1255;48.716;9.124;2023-06-24T14:58:32;28.30;91.50
2489;DHT22;1255;48.716;9.124;2023-06-24T15:00:59;28.30;91.30
2489;DHT22;1255;48.716;9.124;2023-06-24T15:03:26;28.30;90.30
2489;DHT22;1255;48.716;9.124;2023-06-24T15:05:52;28.40;89.40
2489;DHT22;1255;48.716;9.124;2023-06-24T15:08:20;28.30;90.00
2489;DHT22;1255;48.716;9.124;2023-06-24T15:10:47;28.10;90.30
2489;DHT22;1255;48.716;9.124;2023-06-24T15:13:14;27.80;90.40
2489;DHT22;1255;48.716;9.124;2023-06-24T15:15:40;27.60;90.70
2489;DHT22;1255;48.716;9.124;2023-06-24T15:18:07;27.50;90.00
2489;DHT22;1255;48.716;9.124;2023-06-24T15:20:34;27.50;90.70
2489;DHT22;1255;48.716;9.124;2023-06-24T15:23:01;27.50;91.10
2489;DHT22;1255;48.716;9.124;2023-06-24T15:25:30;27.60;87.80
2489;DHT22;1255;48.716;9.124;2023-06-24T15:27:58;27.60;89.60
2489;DHT22;1255;48.716;9.124;2023-06-24T15:30:25;27.70;90.70
2489;DHT22;1255;48.716;9.124;2023-06-24T15:32:52;27.80;91.10
2489;DHT22;1255;48.716;9.124;2023-06-24T15:35:19;28.00;91.10
2489;DHT22;1255;48.716;9.124;2023-06-24T15:37:46;28.00;90.20
2489;DHT22;1255;48.716;9.124;2023-06-24T15:40:13;28.10;91.00
2489;DHT22;1255;48.716;9.124;2023-06-24T15:42:41;28.20;89.90
2489;DHT22;1255;48.716;9.124;2023-06-24T15:45:08;28.20;89.20
2489;DHT22;1255;48.716;9.124;2023-06-24T15:47:35;28.10;89.30
2489;DHT22;1255;48.716;9.124;2023-06-24T15:50:02;28.00;90.40
2489;DHT22;1255;48.716;9.124;2023-06-24T15:52:29;28.00;90.80
2489;DHT22;1255;48.716;9.124;2023-06-24T15:54:56;28.10;90.30
2489;DHT22;1255;48.716;9.124;2023-06-24T15:57:22;28.00;89.20
2489;DHT22;1255;48.716;9.124;2023-06-24T15:59:51;28.00;90.40
2489;DHT22;1255;48.716;9.124;2023-06-24T16:02:21;28.00;88.80
2489;DHT22;1255;48.716;9.124;2023-06-24T16:04:47;27.90;88.20
2489;DHT22;1255;48.716;9.124;2023-06-24T16:07:14;27.90;87.10
2489;DHT22;1255;48.716;9.124;2023-06-24T16:09:41;27.80;86.30
2489;DHT22;1255;48.716;9.124;2023-06-24T16:12:08;27.80;86.20